createdAt,value
2022-11-24T00:00:50.457Z,7.08
2022-11-24T00:03:17.096Z,7.02
2022-11-24T00:05:43.726Z,6.98
2022-11-24T00:08:10.644Z,6.95
2022-11-24T00:10:37.047Z,6.92
2022-11-24T00:13:03.495Z,6.85
2022-11-24T00:15:29.856Z,6.81
2022-11-24T00:17:56.523Z,6.78
2022-11-24T00:20:23.420Z,6.77
2022-11-24T00:22:49.788Z,6.78
2022-11-24T00:25:16.179Z,6.78
2022-11-24T00:27:42.531Z,6.82
2022-11-24T00:30:09.862Z,6.80
2022-11-24T00:32:36.246Z,6.80
2022-11-24T00:35:02.705Z,6.79
2022-11-24T00:37:29.114Z,6.83
2022-11-24T00:39:55.501Z,6.82
2022-11-24T00:42:21.873Z,6.87
2022-11-24T00:44:48.259Z,6.92
2022-11-24T00:47:14.797Z,6.95
2022-11-24T00:49:41.231Z,6.98
2022-11-24T00:52:07.730Z,7.01
2022-11-24T00:54:34.436Z,7.02
2022-11-24T00:57:01.144Z,7.09
2022-11-24T00:59:27.511Z,7.10
2022-11-24T01:01:53.955Z,7.12
2022-11-24T01:04:20.398Z,7.10
2022-11-24T01:06:46.845Z,7.04
2022-11-24T01:09:13.236Z,7.05
2022-11-24T01:11:58.379Z,7.02
2022-11-24T01:14:25.444Z,7.01
2022-11-24T01:16:52.281Z,7.02
2022-11-24T01:19:19.225Z,7.03
2022-11-24T01:21:45.906Z,7.03
2022-11-24T01:24:12.942Z,7.02
2022-11-24T01:26:40.687Z,7.01
2022-11-24T01:29:07.236Z,7.06
2022-11-24T01:31:33.724Z,7.10
2022-11-24T01:34:00.083Z,7.10
2022-11-24T01:36:26.447Z,7.12
2022-11-24T01:38:52.865Z,7.15
2022-11-24T01:41:22.603Z,7.15
2022-11-24T01:43:50.348Z,7.14
2022-11-24T01:46:29.898Z,7.13
2022-11-24T01:49:00.652Z,7.13
2022-11-24T01:51:30.413Z,7.10
2022-11-24T01:54:11.180Z,7.16
2022-11-24T01:56:41.086Z,7.16
2022-11-24T01:59:11.999Z,7.19
2022-11-24T02:01:38.464Z,7.20
2022-11-24T02:04:10.937Z,7.20
2022-11-24T02:06:40.039Z,7.20
2022-11-24T02:09:30.552Z,7.22
2022-11-24T02:11:59.506Z,7.22
2022-11-24T02:14:27.296Z,7.23
2022-11-24T02:16:54.055Z,7.25
2022-11-24T02:19:29.236Z,7.26
2022-11-24T02:21:55.672Z,7.25
2022-11-24T02:24:29.579Z,7.23
2022-11-24T02:26:56.019Z,7.17
2022-11-24T02:29:22.543Z,7.14
2022-11-24T02:31:55.089Z,7.09
2022-11-24T02:34:21.529Z,7.07
2022-11-24T02:36:47.922Z,7.05
2022-11-24T02:39:16.178Z,7.04
2022-11-24T02:41:46.124Z,7.04
2022-11-24T02:44:15.511Z,7.04
2022-11-24T02:46:42.079Z,7.06
2022-11-24T02:49:08.570Z,7.06
2022-11-24T02:51:35.015Z,7.00
2022-11-24T02:54:01.517Z,6.95
2022-11-24T02:56:27.890Z,6.90
2022-11-24T02:58:54.243Z,6.85
2022-11-24T03:01:20.720Z,6.82
2022-11-24T03:03:48.400Z,6.78
2022-11-24T03:06:14.827Z,6.76
2022-11-24T03:08:41.226Z,6.74
2022-11-24T03:11:07.579Z,6.71
2022-11-24T03:13:35.247Z,6.68
2022-11-24T03:16:01.927Z,6.67
2022-11-24T03:18:28.414Z,6.65
2022-11-24T03:20:59.487Z,6.60
2022-11-24T03:23:26.207Z,6.59
2022-11-24T03:25:52.552Z,6.61
2022-11-24T03:28:18.913Z,6.60
2022-11-24T03:30:49.027Z,6.55
2022-11-24T03:33:15.496Z,6.55
2022-11-24T03:35:42.244Z,6.52
2022-11-24T03:38:08.596Z,6.50
2022-11-24T03:40:35.061Z,6.49
2022-11-24T03:43:01.480Z,6.51
2022-11-24T03:45:45.415Z,6.53
2022-11-24T03:48:13.491Z,6.58
2022-11-24T03:50:39.997Z,6.64
2022-11-24T03:53:06.377Z,6.68
2022-11-24T03:55:32.851Z,6.73
2022-11-24T03:57:59.323Z,6.74
2022-11-24T04:00:26.241Z,6.75
2022-11-24T04:02:52.656Z,6.76
2022-11-24T04:05:19.130Z,6.77
2022-11-24T04:07:45.630Z,6.78
2022-11-24T04:10:12.032Z,6.77
2022-11-24T04:12:44.420Z,6.79
2022-11-24T04:15:15.690Z,6.77
2022-11-24T04:17:42.413Z,6.82
2022-11-24T04:20:10.361Z,6.82
2022-11-24T04:22:37.337Z,6.82
2022-11-24T04:25:04.422Z,6.84
2022-11-24T04:27:32.780Z,6.85
2022-11-24T04:29:59.349Z,6.88
2022-11-24T04:32:25.716Z,6.91
2022-11-24T04:34:52.113Z,6.94
2022-11-24T04:37:18.697Z,6.96
2022-11-24T04:39:46.218Z,6.98
2022-11-24T04:42:13.268Z,7.04
2022-11-24T04:44:40.061Z,7.04
2022-11-24T04:47:06.751Z,7.01
2022-11-24T04:49:33.215Z,6.98
2022-11-24T04:51:59.597Z,6.98
2022-11-24T04:54:25.992Z,7.00
2022-11-24T04:56:52.692Z,7.00
2022-11-24T04:59:19.769Z,6.98
2022-11-24T05:01:46.844Z,6.96
2022-11-24T05:04:15.530Z,6.93
2022-11-24T05:06:42.406Z,6.89
2022-11-24T05:09:13.412Z,6.84
2022-11-24T05:11:39.818Z,6.79
2022-11-24T05:14:06.204Z,6.78
2022-11-24T05:16:32.700Z,6.79
2022-11-24T05:18:59.187Z,6.77
2022-11-24T05:21:25.795Z,6.76
2022-11-24T05:23:52.116Z,6.76
2022-11-24T05:26:18.490Z,6.74
2022-11-24T05:28:45.246Z,6.73
2022-11-24T05:31:11.729Z,6.70
2022-11-24T05:33:38.261Z,6.66
2022-11-24T05:36:06.526Z,6.64
2022-11-24T05:38:33.818Z,6.63
2022-11-24T05:41:05.128Z,6.67
2022-11-24T05:43:32.007Z,6.77
2022-11-24T05:46:01.864Z,6.88
2022-11-24T05:48:28.352Z,6.92
2022-11-24T05:50:58.499Z,6.91
2022-11-24T05:53:26.860Z,6.89
2022-11-24T05:55:53.309Z,6.85
2022-11-24T05:58:19.846Z,6.86
2022-11-24T06:00:46.461Z,6.85
2022-11-24T06:03:13.078Z,6.84
2022-11-24T06:05:39.598Z,6.81
2022-11-24T06:08:06.121Z,6.79
2022-11-24T06:10:32.547Z,6.76
2022-11-24T06:12:59.017Z,6.76
2022-11-24T06:15:25.406Z,6.74
2022-11-24T06:17:55.979Z,6.72
2022-11-24T06:20:28.348Z,6.72
2022-11-24T06:22:59.155Z,6.73
2022-11-24T06:25:26.256Z,6.74
2022-11-24T06:27:52.734Z,6.78
2022-11-24T06:30:19.323Z,6.78
2022-11-24T06:32:49.454Z,6.78
2022-11-24T06:35:16.847Z,6.81
2022-11-24T06:37:43.279Z,6.83
2022-11-24T06:40:10.215Z,6.87
2022-11-24T06:42:37.484Z,6.90
2022-11-24T06:45:08.782Z,6.96
2022-11-24T06:47:35.998Z,7.01
2022-11-24T06:50:02.709Z,7.04
2022-11-24T06:52:29.191Z,7.10
2022-11-24T06:54:55.737Z,7.15
2022-11-24T06:57:22.170Z,7.22
2022-11-24T06:59:48.715Z,7.22
2022-11-24T07:02:15.280Z,7.24
2022-11-24T07:04:41.674Z,7.24
2022-11-24T07:07:08.145Z,7.23
2022-11-24T07:09:34.620Z,7.21
2022-11-24T07:12:02.281Z,7.24
2022-11-24T07:14:28.676Z,7.24
2022-11-24T07:16:55.114Z,7.22
2022-11-24T07:19:24.902Z,7.18
2022-11-24T07:21:51.541Z,7.17
2022-11-24T07:24:17.978Z,7.14
2022-11-24T07:26:44.752Z,7.12
2022-11-24T07:29:11.133Z,7.11
2022-11-24T07:31:37.889Z,7.10
2022-11-24T07:34:04.397Z,7.10
2022-11-24T07:36:30.924Z,7.09
2022-11-24T07:38:57.670Z,7.09
2022-11-24T07:41:24.211Z,7.07
2022-11-24T07:43:51.544Z,7.11
2022-11-24T07:46:19.430Z,7.14
2022-11-24T07:48:46.878Z,7.17
2022-11-24T07:51:13.367Z,7.18
2022-11-24T07:53:39.989Z,7.21
2022-11-24T07:56:07.116Z,7.23
2022-11-24T07:58:36.021Z,7.23
2022-11-24T08:01:13.241Z,7.22
2022-11-24T08:03:40.434Z,7.21
2022-11-24T08:06:24.008Z,7.23
2022-11-24T08:08:52.851Z,7.23
2022-11-24T08:11:19.377Z,7.23
2022-11-24T08:13:45.943Z,7.27
2022-11-24T08:16:15.074Z,7.26
2022-11-24T08:18:42.890Z,7.31
2022-11-24T08:21:14.236Z,7.34
2022-11-24T08:23:41.573Z,7.34
2022-11-24T08:26:13.856Z,7.36
2022-11-24T08:28:40.318Z,7.38
2022-11-24T08:31:09.624Z,7.41
2022-11-24T08:33:37.147Z,7.44
2022-11-24T08:36:08.843Z,7.46
2022-11-24T08:38:35.361Z,7.48
2022-11-24T08:41:03.779Z,7.50
2022-11-24T08:43:30.757Z,7.52
2022-11-24T08:46:06.289Z,7.51
2022-11-24T08:48:33.919Z,7.51
2022-11-24T08:51:07.753Z,7.50
2022-11-24T08:53:34.422Z,7.52
2022-11-24T08:56:01.443Z,7.54
2022-11-24T08:58:30.999Z,7.55
2022-11-24T09:01:13.828Z,7.56
2022-11-24T09:03:46.590Z,7.56
2022-11-24T09:06:15.712Z,7.56
2022-11-24T09:08:42.274Z,7.56
2022-11-24T09:11:13.830Z,7.60
2022-11-24T09:13:41.163Z,7.59
2022-11-24T09:16:11.185Z,7.65
2022-11-24T09:18:38.455Z,7.69
2022-11-24T09:21:21.692Z,7.77
2022-11-24T09:23:50.728Z,7.82
2022-11-24T09:26:23.020Z,7.85
2022-11-24T09:28:50.324Z,7.88
2022-11-24T09:31:17.988Z,7.89
2022-11-24T09:33:45.031Z,7.91
2022-11-24T09:36:11.448Z,7.94
2022-11-24T09:38:38.066Z,7.90
2022-11-24T09:41:43.389Z,7.89
2022-11-24T09:44:54.549Z,7.90
2022-11-24T09:47:42.492Z,7.88
2022-11-24T09:50:18.359Z,7.89
2022-11-24T09:53:00.996Z,7.88
2022-11-24T09:55:33.536Z,7.88
2022-11-24T09:58:38.457Z,7.86
2022-11-24T10:01:26.203Z,7.86
2022-11-24T10:03:54.292Z,7.88
2022-11-24T10:06:26.346Z,7.93
2022-11-24T10:09:07.908Z,7.99
2022-11-24T10:12:02.339Z,8.09
2022-11-24T10:14:41.754Z,8.15
2022-11-24T10:17:53.069Z,8.24
2022-11-24T10:20:27.832Z,8.34
2022-11-24T10:23:17.191Z,8.42
2022-11-24T10:26:16.206Z,8.46
2022-11-24T10:28:55.105Z,8.49
2022-11-24T10:31:45.721Z,8.53
2022-11-24T10:34:25.576Z,8.55
2022-11-24T10:36:58.087Z,8.61
2022-11-24T10:39:39.885Z,8.70
2022-11-24T10:42:18.198Z,8.76
2022-11-24T10:44:44.708Z,8.80
2022-11-24T10:47:34.401Z,8.80
2022-11-24T10:50:26.434Z,8.91
2022-11-24T10:53:18.475Z,9.00
2022-11-24T10:55:56.810Z,9.03
2022-11-24T10:58:37.719Z,9.03
2022-11-24T11:01:13.713Z,9.11
2022-11-24T11:03:59.969Z,9.11
2022-11-24T11:06:36.258Z,9.05
2022-11-24T11:09:08.396Z,9.01
2022-11-24T11:11:36.339Z,8.97
2022-11-24T11:14:05.853Z,8.93
2022-11-24T11:16:38.064Z,8.89
2022-11-24T11:19:47.740Z,8.85
2022-11-24T11:22:12.050Z,8.82
2022-11-24T11:24:43.347Z,8.82
2022-11-24T11:27:30.044Z,8.87
2022-11-24T11:36:11.155Z,9.41
2022-11-24T11:38:39.145Z,9.68
2022-11-24T11:41:10.734Z,9.69
2022-11-24T11:43:41.010Z,9.60
2022-11-24T11:46:18.207Z,9.55
2022-11-24T11:48:46.839Z,9.51
2022-11-24T11:51:24.479Z,9.46
2022-11-24T11:54:38.577Z,9.45
2022-11-24T11:57:13.237Z,9.46
2022-11-24T11:59:42.174Z,9.55
2022-11-24T12:02:51.548Z,9.68
2022-11-24T12:05:49.855Z,9.66
2022-11-24T12:09:17.795Z,9.85
2022-11-24T12:11:43.607Z,9.86
2022-11-24T12:14:18.936Z,9.81
2022-11-24T12:17:22.620Z,9.76
2022-11-24T12:20:03.772Z,9.73
2022-11-24T12:22:39.210Z,9.75
2022-11-24T12:25:30.213Z,9.77
2022-11-24T12:28:18.200Z,9.72
2022-11-24T12:31:09.371Z,9.68
2022-11-24T12:34:14.660Z,9.75
2022-11-24T12:36:57.850Z,9.80
2022-11-24T12:39:52.838Z,9.85
2022-11-24T12:42:40.898Z,9.84
2022-11-24T12:45:14.330Z,9.82
2022-11-24T12:48:07.135Z,9.82
2022-11-24T12:50:38.998Z,9.81
2022-11-24T12:53:25.419Z,9.80
2022-11-24T12:55:53.116Z,9.81
2022-11-24T12:58:41.338Z,9.82
2022-11-24T13:01:18.436Z,9.84
2022-11-24T13:04:03.169Z,9.89
2022-11-24T13:06:39.722Z,9.93
2022-11-24T13:09:09.379Z,9.95
2022-11-24T13:11:41.908Z,10.08
2022-11-24T13:14:30.452Z,10.58
2022-11-24T13:17:28.485Z,10.90
2022-11-24T13:19:46.126Z,11.12
2022-11-24T13:22:24.210Z,11.26
2022-11-24T13:25:28.676Z,11.23
2022-11-24T13:28:00.188Z,11.07
2022-11-24T13:30:35.674Z,11.24
2022-11-24T13:33:16.014Z,11.08
2022-11-24T13:36:04.006Z,10.83
2022-11-24T13:38:45.686Z,10.65
2022-11-24T13:41:32.270Z,10.51
2022-11-24T13:44:17.151Z,10.42
2022-11-24T13:47:06.244Z,10.39
2022-11-24T13:49:41.206Z,10.38
2022-11-24T13:52:38.727Z,10.33
2022-11-24T13:55:11.765Z,10.26
2022-11-24T13:57:41.461Z,10.15
2022-11-24T14:00:32.264Z,10.10
2022-11-24T14:03:36.262Z,10.12
2022-11-24T14:06:03.888Z,10.14
2022-11-24T14:08:37.641Z,10.18
2022-11-24T14:11:13.135Z,10.19
2022-11-24T14:13:39.546Z,10.20
2022-11-24T14:16:06.091Z,10.18
2022-11-24T14:18:34.261Z,10.15
2022-11-24T14:21:16.586Z,10.11
2022-11-24T14:23:50.958Z,10.06
2022-11-24T14:26:20.537Z,10.01
2022-11-24T14:28:47.865Z,9.97
2022-11-24T14:31:25.097Z,9.93
2022-11-24T14:34:12.737Z,9.89
2022-11-24T14:36:39.855Z,9.86
2022-11-24T14:39:11.026Z,9.84
2022-11-24T14:41:37.501Z,9.76
2022-11-24T14:44:28.541Z,9.66
2022-11-24T14:47:14.920Z,9.61
2022-11-24T14:49:43.209Z,9.57
2022-11-24T14:52:14.309Z,9.60
2022-11-24T14:54:50.858Z,9.59
2022-11-24T14:57:24.917Z,9.62
2022-11-24T15:00:08.891Z,9.63
2022-11-24T15:02:46.243Z,9.62
2022-11-24T15:05:12.993Z,9.65
2022-11-24T15:07:43.419Z,9.64
2022-11-24T15:10:36.179Z,9.60
2022-11-24T15:13:15.290Z,9.64
2022-11-24T15:15:49.396Z,9.68
2022-11-24T15:18:46.770Z,9.65
2022-11-24T15:21:18.904Z,9.60
2022-11-24T15:24:06.342Z,9.55
2022-11-24T15:26:38.248Z,9.46
2022-11-24T15:29:07.991Z,9.34
2022-11-24T15:31:34.452Z,9.23
2022-11-24T15:34:00.960Z,9.12
2022-11-24T15:36:27.420Z,8.97
2022-11-24T15:38:53.774Z,8.89
2022-11-24T15:41:22.194Z,8.86
2022-11-24T15:43:48.652Z,8.83
2022-11-24T15:46:15.953Z,8.88
2022-11-24T15:48:42.426Z,8.85
2022-11-24T15:51:13.446Z,8.83
2022-11-24T15:53:44.188Z,8.80
2022-11-24T15:56:33.015Z,8.72
2022-11-24T15:59:00.192Z,8.68
2022-11-24T16:01:30.267Z,8.64
2022-11-24T16:03:56.829Z,8.57
2022-11-24T16:06:25.046Z,8.54
2022-11-24T16:08:52.845Z,8.53
2022-11-24T16:11:20.564Z,8.47
2022-11-24T16:13:51.814Z,8.40
2022-11-24T16:16:19.879Z,8.32
2022-11-24T16:18:46.453Z,8.23
2022-11-24T16:21:12.903Z,8.16
2022-11-24T16:23:39.350Z,8.10
2022-11-24T16:26:06.464Z,8.01
2022-11-24T16:28:33.201Z,7.94
2022-11-24T16:30:59.613Z,7.88
2022-11-24T16:33:26.047Z,7.83
2022-11-24T16:35:52.481Z,7.80
2022-11-24T16:38:20.014Z,7.74
2022-11-24T16:40:54.463Z,7.64
2022-11-24T16:43:20.931Z,7.58
2022-11-24T16:46:03.172Z,7.52
2022-11-24T16:48:46.154Z,7.48
2022-11-24T16:51:14.442Z,7.46
2022-11-24T16:53:42.791Z,7.39
2022-11-24T16:56:11.107Z,7.35
2022-11-24T16:58:43.697Z,7.31
2022-11-24T17:03:51.887Z,7.20
2022-11-24T17:06:19.101Z,7.17
2022-11-24T17:08:46.965Z,7.14
2022-11-24T17:11:16.081Z,7.13
2022-11-24T17:13:43.484Z,7.11
2022-11-24T17:16:12.227Z,7.08
2022-11-24T17:18:39.127Z,7.05
2022-11-24T17:21:09.735Z,7.02
2022-11-24T17:23:37.029Z,6.98
2022-11-24T17:26:21.762Z,6.93
2022-11-24T17:28:48.179Z,6.89
2022-11-24T17:31:23.001Z,6.84
2022-11-24T17:33:54.498Z,6.80
2022-11-24T17:36:22.154Z,6.76
2022-11-24T17:38:49.555Z,6.71
2022-11-24T17:41:19.865Z,6.68
2022-11-24T17:43:50.814Z,6.68
2022-11-24T17:46:17.480Z,6.66
2022-11-24T17:48:43.946Z,6.63
2022-11-24T17:51:16.089Z,6.65
2022-11-24T17:53:43.659Z,6.64
2022-11-24T17:56:15.024Z,6.63
2022-11-24T17:58:43.352Z,6.56
2022-11-24T18:01:11.202Z,6.52
2022-11-24T18:03:41.513Z,6.48
2022-11-24T18:06:10.342Z,6.45
2022-11-24T18:08:38.486Z,6.41
2022-11-24T18:11:09.243Z,6.36
2022-11-24T18:13:55.815Z,6.33
2022-11-24T18:16:24.286Z,6.31
2022-11-24T18:19:07.363Z,6.26
2022-11-24T18:21:35.227Z,6.25
2022-11-24T18:24:01.987Z,6.26
2022-11-24T18:26:28.638Z,6.27
2022-11-24T18:28:55.021Z,6.22
2022-11-24T18:31:22.568Z,6.19
2022-11-24T18:33:49.163Z,6.16
2022-11-24T18:36:18.464Z,6.13
2022-11-24T18:38:45.427Z,6.13
2022-11-24T18:41:13.603Z,6.13
2022-11-24T18:43:40.285Z,6.16
2022-11-24T18:46:08.319Z,6.21
2022-11-24T18:48:34.965Z,6.26
2022-11-24T18:51:01.863Z,6.31
2022-11-24T18:53:29.301Z,6.33
2022-11-24T18:55:58.813Z,6.29
2022-11-24T18:58:27.049Z,6.27
2022-11-24T19:00:55.173Z,6.20
2022-11-24T19:03:21.581Z,6.14
2022-11-24T19:05:47.998Z,6.07
2022-11-24T19:08:14.427Z,6.02
2022-11-24T19:10:41.941Z,5.97
2022-11-24T19:13:08.380Z,5.95
2022-11-24T19:15:35.426Z,5.90
2022-11-24T19:18:02.137Z,5.86
2022-11-24T19:20:28.878Z,5.81
2022-11-24T19:22:55.367Z,5.81
2022-11-24T19:25:21.779Z,5.80
2022-11-24T19:27:48.273Z,5.73
2022-11-24T19:30:16.619Z,5.68
2022-11-24T19:32:43.090Z,5.67
2022-11-24T19:35:10.092Z,5.67
2022-11-24T19:37:37.255Z,5.64
2022-11-24T19:40:04.499Z,5.62
2022-11-24T19:42:31.003Z,5.58
2022-11-24T19:44:57.374Z,5.54
2022-11-24T19:47:23.765Z,5.50
2022-11-24T19:49:50.284Z,5.47
2022-11-24T19:52:16.661Z,5.48
2022-11-24T19:54:43.209Z,5.47
2022-11-24T19:57:09.735Z,5.48
2022-11-24T19:59:36.128Z,5.53
2022-11-24T20:02:02.787Z,5.51
2022-11-24T20:04:29.601Z,5.53
2022-11-24T20:06:56.042Z,5.50
2022-11-24T20:09:22.437Z,5.49
2022-11-24T20:11:49.116Z,5.46
2022-11-24T20:14:26.118Z,5.44
2022-11-24T20:16:52.716Z,5.42
2022-11-24T20:19:19.187Z,5.45
2022-11-24T20:21:47.780Z,5.45
2022-11-24T20:24:19.329Z,5.46
2022-11-24T20:26:52.007Z,5.46
2022-11-24T20:29:19.173Z,5.46
2022-11-24T20:31:48.728Z,5.43
2022-11-24T20:34:15.981Z,5.43
2022-11-24T20:36:44.381Z,5.41
2022-11-24T20:39:34.004Z,5.40
2022-11-24T20:42:00.357Z,5.39
2022-11-24T20:44:27.642Z,5.36
2022-11-24T20:46:56.659Z,5.33
2022-11-24T20:49:23.189Z,5.29
2022-11-24T20:51:54.198Z,5.27
2022-11-24T20:54:21.553Z,5.22
2022-11-24T20:56:48.457Z,5.18
2022-11-24T20:59:18.184Z,5.16
2022-11-24T21:01:46.448Z,5.13
2022-11-24T21:04:16.958Z,5.09
2022-11-24T21:06:43.448Z,5.10
2022-11-24T21:09:10.465Z,5.09
2022-11-24T21:11:38.039Z,5.06
2022-11-24T21:14:05.404Z,5.05
2022-11-24T21:16:34.724Z,5.04
2022-11-24T21:19:04.300Z,5.03
2022-11-24T21:21:34.578Z,5.02
2022-11-24T21:24:06.815Z,4.96
2022-11-24T21:26:37.188Z,4.92
2022-11-24T21:29:04.233Z,4.89
2022-11-24T21:31:30.720Z,4.85
2022-11-24T21:33:57.163Z,4.83
2022-11-24T21:36:25.571Z,4.82
2022-11-24T21:39:02.455Z,4.78
2022-11-24T21:41:32.523Z,4.76
2022-11-24T21:43:59.042Z,4.72
2022-11-24T21:46:25.662Z,4.69
2022-11-24T21:48:52.097Z,4.62
2022-11-24T21:51:20.311Z,4.61
2022-11-24T21:53:47.566Z,4.56
2022-11-24T21:56:16.941Z,4.57
2022-11-24T21:58:45.620Z,4.59
2022-11-24T22:01:12.421Z,4.58
2022-11-24T22:03:38.830Z,4.58
2022-11-24T22:06:05.618Z,4.57
2022-11-24T22:08:32.500Z,4.54
2022-11-24T22:11:04.399Z,4.50
2022-11-24T22:13:31.153Z,4.49
2022-11-24T22:16:05.301Z,4.48
2022-11-24T22:18:34.038Z,4.46
2022-11-24T22:21:02.770Z,4.48
2022-11-24T22:23:33.501Z,4.46
2022-11-24T22:26:10.014Z,4.43
2022-11-24T22:28:36.825Z,4.40
2022-11-24T22:31:13.231Z,4.35
2022-11-24T22:33:40.108Z,4.31
2022-11-24T22:36:07.374Z,4.29
2022-11-24T22:38:34.279Z,4.28
2022-11-24T22:41:06.247Z,4.26
2022-11-24T22:43:34.186Z,4.23
2022-11-24T22:46:26.048Z,4.20
2022-11-24T22:48:54.006Z,4.18
2022-11-24T22:51:26.429Z,4.17
2022-11-24T22:53:56.159Z,4.17
2022-11-24T22:56:23.740Z,4.16
2022-11-24T22:58:50.842Z,4.11
2022-11-24T23:01:22.641Z,4.07
2022-11-24T23:03:50.106Z,4.10
2022-11-24T23:06:22.459Z,4.11
2022-11-24T23:08:49.703Z,4.11
2022-11-24T23:11:24.662Z,4.07
2022-11-24T23:13:58.483Z,4.02
2022-11-24T23:16:24.991Z,3.99
2022-11-24T23:18:54.065Z,4.00
2022-11-24T23:21:30.708Z,4.00
2022-11-24T23:23:59.325Z,4.01
2022-11-24T23:26:32.360Z,4.00
2022-11-24T23:28:58.847Z,3.96
2022-11-24T23:31:30.267Z,3.97
2022-11-24T23:34:01.901Z,3.96
2022-11-24T23:36:29.291Z,3.95
2022-11-24T23:38:55.897Z,3.93
2022-11-24T23:41:24.958Z,3.93
2022-11-24T23:43:52.437Z,3.91
2022-11-24T23:46:21.373Z,3.89
2022-11-24T23:48:49.235Z,3.92
2022-11-24T23:51:18.860Z,3.95
2022-11-24T23:53:45.712Z,3.93
2022-11-24T23:56:14.935Z,3.94
2022-11-24T23:58:41.779Z,3.94
